Irvona, PA (16656)

2:36 AM EDT en Abril 25, 2018 (GMT -0400)
Rosebud | | Change Station

Alt 1450 ft 40.75 °N, 78.54 °W | Updated 3 seconds ago

Nublado
Nublado
49.6 ° F
Sensación térmica 50 ° F
N
1.8
Viento Variable Viento desde SSE
Gusts 8.7 mph

Hoy
Alta -- | Baja -- ° F
--% Posibilidad de precipitaciones
Ayer
Alta -- | Baja -- ° F
Precip. -- pul
Presión 29.97 pul
Visibilidad 10.0 Millas
Nubes Baja 600 ft
Nublado 1200 ft
Vientos helados 50 ° F
Punto de rocío 49 ° F
Humedad 96%
Precipitaciones 0.00 pul
Espesor de la nieve No disponible.
6:20 AM 8:04 PM
Gibosa creciente, 76% visible
METAR KFIG 250554Z AUTO 04005KT 10SM -RA FEW006 OVC012 09/08 A2996 RMK AO2 SLP148 P0001 60012 T00890083 10094 20089 56026
Presión 29.97 pul
Visibilidad 10.0 Millas
Nubes Baja 600 ft
Nublado 1200 ft
Vientos helados 50 ° F
Punto de rocío 49 ° F
Humedad 96%
Precipitaciones 0.00 pul
Espesor de la nieve No disponible.
6:20 AM 8:04 PM
Gibosa creciente, 76% visible
METAR KFIG 250554Z AUTO 04005KT 10SM -RA FEW006 OVC012 09/08 A2996 RMK AO2 SLP148 P0001 60012 T00890083 10094 20089 56026

Get Severe Weather Alerts

Thanks for signing up!

Be on the lookout for a verification email in your inbox.

You'll start receiving the daily forecast at 6 AM.

×

10-Day Weather Forecast

Almanac

Astronomía

Apr. 25, 2018 Salida Puesta
Hora real
Crepúsculo civil
Crepúsculo náutico
Crepúsculo astronómico
Luna
Horas de luz
Horas de luz
Tomorrow will be .
, % of the Moon is Illuminated

Extremos de hoy

Máximos del estado Bajos del estado

Community

WunderPhotos

Category 6

Welcome to Category 6. This is the collective home for Weather Underground's featured writeups by Dr. Jeff Masters (right), Bob Henson (left), Chris Burt, and other regular contributors.

Nearby

Calidad del aire

  Calidad del aire Índice AQ Contaminante
Not available.

Grosos de nieve

Estación Profundido Altura

Actividad de terremotos

Ciudad Distance Mag. Tiempo y dato
Magnitud mínima muestra es 2,5.

Temperaturas de aguas costeras

Lugar Temperatura

Stations

Estaciones meteorológicas cercanas

Ubicación de la estación Temp. Vientos helados Punto de rocío Humedad Viento Precip. Alt Actualizado Tipo
                   

Watches & Warnings

There are currently no watches in effect.